createdAt,value
2018-07-19T00:01:26.272Z,99251.89
2018-07-19T00:03:54.947Z,99252.38
2018-07-19T00:06:23.638Z,99256.25
2018-07-19T00:08:52.325Z,99257.22
2018-07-19T00:11:20.980Z,99254.06
2018-07-19T00:13:49.706Z,99256.96
2018-07-19T00:16:18.414Z,99258.01
2018-07-19T00:18:47.403Z,99248.75
2018-07-19T00:21:18.897Z,99246.30
2018-07-19T00:23:47.496Z,99246.21
2018-07-19T00:26:16.210Z,99243.75
2018-07-19T00:28:45.404Z,99246.33
2018-07-19T00:31:14.038Z,99240.80
2018-07-19T00:33:42.633Z,99244.05
2018-07-19T00:36:11.238Z,99240.59
2018-07-19T00:38:39.938Z,99235.12
2018-07-19T00:41:08.965Z,99246.48
2018-07-19T00:43:37.714Z,99239.09
2018-07-19T00:46:06.384Z,99242.10
2018-07-19T00:48:35.014Z,99240.34
2018-07-19T00:51:03.645Z,99234.75
2018-07-19T00:53:32.287Z,99234.23
2018-07-19T00:56:00.920Z,99228.61
2018-07-19T00:58:29.509Z,99236.38
2018-07-19T01:00:58.174Z,99227.69
2018-07-19T01:03:26.813Z,99230.12
2018-07-19T01:05:55.432Z,99228.67
2018-07-19T01:08:24.116Z,99228.47
2018-07-19T01:10:52.737Z,99226.82
2018-07-19T01:13:21.407Z,99229.92
2018-07-19T01:15:50.013Z,99227.31
2018-07-19T01:18:18.655Z,99232.03
2018-07-19T01:20:47.295Z,99231.45
2018-07-19T01:23:15.897Z,99232.09
2018-07-19T01:25:44.530Z,99240.05
2018-07-19T01:28:13.194Z,99231.83
2018-07-19T01:30:41.828Z,99230.91
2018-07-19T01:33:10.453Z,99243.41
2018-07-19T01:35:39.049Z,99240.60
2018-07-19T01:38:07.721Z,99248.02
2018-07-19T01:40:36.296Z,99238.45
2018-07-19T01:43:05.488Z,99238.78
2018-07-19T01:45:34.150Z,99246.10
2018-07-19T01:48:02.767Z,99236.26
2018-07-19T01:50:31.372Z,99239.41
2018-07-19T01:53:00.820Z,99240.72
2018-07-19T01:55:29.513Z,99239.50
2018-07-19T01:57:58.193Z,99238.28
2018-07-19T02:00:26.893Z,99244.91
2018-07-19T02:02:55.505Z,99249.60
2018-07-19T02:05:24.146Z,99239.37
2018-07-19T02:07:52.840Z,99247.66
2018-07-19T02:10:21.529Z,99240.22
2018-07-19T02:12:50.160Z,99243.87
2018-07-19T02:15:18.797Z,99240.72
2018-07-19T02:17:47.410Z,99247.06
2018-07-19T02:20:16.062Z,99254.50
2018-07-19T02:22:44.773Z,99264.58
2018-07-19T02:25:13.423Z,99255.86
2018-07-19T02:27:42.064Z,99266.48
2018-07-19T02:30:10.706Z,99256.98
2018-07-19T02:32:40.160Z,99263.49
2018-07-19T02:35:08.973Z,99264.39
2018-07-19T02:37:37.570Z,99256.97
2018-07-19T02:40:06.191Z,99266.16
2018-07-19T02:42:34.810Z,99261.87
2018-07-19T02:45:03.465Z,99264.94
2018-07-19T02:47:32.105Z,99276.31
2018-07-19T02:50:00.799Z,99274.03
2018-07-19T02:52:30.060Z,99273.44
2018-07-19T02:54:58.677Z,99273.98
2018-07-19T02:57:27.289Z,99275.02
2018-07-19T02:59:55.960Z,99271.63
2018-07-19T03:02:24.631Z,99268.36
2018-07-19T03:04:53.266Z,99274.94
2018-07-19T03:07:21.929Z,99273.44
2018-07-19T03:09:50.616Z,99272.16
2018-07-19T03:12:19.290Z,99268.98
2018-07-19T03:14:49.020Z,99279.82
2018-07-19T03:17:17.725Z,99271.94
2018-07-19T03:19:46.363Z,99274.22
2018-07-19T03:22:15.007Z,99280.02
2018-07-19T03:24:43.661Z,99271.42
2018-07-19T03:27:12.341Z,99278.01
2018-07-19T03:29:40.990Z,99277.28
2018-07-19T03:32:09.715Z,99272.84
2018-07-19T03:34:38.314Z,99270.43
2018-07-19T03:37:06.959Z,99278.81
2018-07-19T03:39:35.570Z,99284.56
2018-07-19T03:42:04.224Z,99286.40
2018-07-19T03:44:32.832Z,99282.22
2018-07-19T03:47:01.592Z,99288.81
2018-07-19T03:49:30.219Z,99296.23
2018-07-19T03:51:59.454Z,99291.67
2018-07-19T03:54:28.113Z,99296.80
2018-07-19T03:56:56.721Z,99296.61
2018-07-19T03:59:25.388Z,99297.38
2018-07-19T04:01:54.077Z,99295.05
2018-07-19T04:04:22.678Z,99303.84
2018-07-19T04:06:51.322Z,99301.52
2018-07-19T04:09:19.946Z,99312.31
2018-07-19T04:11:48.601Z,99314.41
2018-07-19T04:14:17.257Z,99316.86
2018-07-19T04:16:45.874Z,99313.30
2018-07-19T04:19:14.472Z,99313.73
2018-07-19T04:21:43.085Z,99318.13
2018-07-19T04:24:12.483Z,99331.53
2018-07-19T04:26:41.089Z,99327.70
2018-07-19T04:29:09.717Z,99321.42
2018-07-19T04:31:38.349Z,99329.23
2018-07-19T04:34:07.377Z,99325.20
2018-07-19T04:36:35.969Z,99329.50
2018-07-19T04:39:06.289Z,99331.36
2018-07-19T04:41:34.941Z,99329.79
2018-07-19T04:44:03.560Z,99329.79
2018-07-19T04:46:32.203Z,99346.72
2018-07-19T04:49:00.837Z,99329.52
2018-07-19T04:51:29.534Z,99335.20
2018-07-19T04:53:58.159Z,99330.94
2018-07-19T04:56:26.806Z,99334.66
2018-07-19T04:58:56.093Z,99332.25
2018-07-19T05:01:24.941Z,99333.50
2018-07-19T05:03:53.590Z,99337.67
2018-07-19T05:06:22.213Z,99339.22
2018-07-19T05:08:50.861Z,99332.13
2018-07-19T05:11:19.989Z,99340.66
2018-07-19T05:13:48.627Z,99341.19
2018-07-19T05:16:17.822Z,99344.55
2018-07-19T05:18:46.521Z,99347.84
2018-07-19T05:21:15.763Z,99352.93
2018-07-19T05:23:44.806Z,99348.88
2018-07-19T05:26:14.164Z,99350.76
2018-07-19T05:28:42.789Z,99361.39
2018-07-19T05:31:11.451Z,99355.84
2018-07-19T05:33:40.140Z,99361.66
2018-07-19T05:36:09.402Z,99352.33
2018-07-19T05:38:38.106Z,99364.98
2018-07-19T05:41:07.074Z,99358.65
2018-07-19T05:43:35.742Z,99354.70
2018-07-19T05:46:04.425Z,99383.63
2018-07-19T05:48:33.210Z,99366.16
2018-07-19T05:51:01.975Z,99359.10
2018-07-19T05:53:30.649Z,99363.18
2018-07-19T05:55:59.402Z,99364.53
2018-07-19T05:58:28.247Z,99378.53
2018-07-19T06:00:56.921Z,99355.92
2018-07-19T06:03:26.393Z,99361.60
2018-07-19T06:05:57.772Z,99369.54
2018-07-19T06:08:26.896Z,99370.52
2018-07-19T06:10:55.544Z,99362.70
2018-07-19T06:13:25.528Z,99362.95
2018-07-19T06:15:54.354Z,99381.67
2018-07-19T06:18:23.057Z,99383.48
2018-07-19T06:20:51.749Z,99374.81
2018-07-19T06:23:20.413Z,99377.02
2018-07-19T06:25:49.104Z,99375.37
2018-07-19T06:28:17.841Z,99372.34
2018-07-19T06:30:46.410Z,99369.84
2018-07-19T06:33:15.730Z,99383.30
2018-07-19T06:35:44.423Z,99373.37
2018-07-19T06:38:13.162Z,99365.24
2018-07-19T06:40:42.043Z,99368.36
2018-07-19T06:43:11.045Z,99368.58
2018-07-19T06:45:39.883Z,99367.36
2018-07-19T06:48:08.577Z,99369.63
2018-07-19T06:50:37.764Z,99367.36
2018-07-19T06:53:13.885Z,99358.09
2018-07-19T06:55:42.516Z,99366.52
2018-07-19T06:58:11.257Z,99377.57
2018-07-19T07:00:40.630Z,99375.70
2018-07-19T07:03:09.276Z,99371.76
2018-07-19T07:05:37.878Z,99379.14
2018-07-19T07:08:06.685Z,99379.02
2018-07-19T07:10:35.453Z,99376.45
2018-07-19T07:13:04.234Z,99381.94
2018-07-19T07:15:32.886Z,99381.65
2018-07-19T07:18:01.522Z,99387.06
2018-07-19T07:20:30.161Z,99382.65
2018-07-19T07:22:58.776Z,99377.33
2018-07-19T07:25:27.496Z,99378.95
2018-07-19T07:27:56.409Z,99375.05
2018-07-19T07:30:25.276Z,99381.89
2018-07-19T07:32:54.042Z,99375.77
2018-07-19T07:35:22.905Z,99375.69
2018-07-19T07:37:51.525Z,99374.36
2018-07-19T07:40:20.149Z,99368.39
2018-07-19T07:42:48.863Z,99369.89
2018-07-19T07:45:18.106Z,99383.61
2018-07-19T07:47:46.721Z,99373.84
2018-07-19T07:50:15.388Z,99377.25
2018-07-19T07:52:43.987Z,99372.02
2018-07-19T07:55:12.649Z,99382.66
2018-07-19T07:57:41.315Z,99377.98
2018-07-19T08:00:10.021Z,99382.73
2018-07-19T08:02:38.733Z,99375.11
2018-07-19T08:05:07.514Z,99367.33
2018-07-19T08:07:36.194Z,99380.47
2018-07-19T08:10:05.023Z,99377.96
2018-07-19T08:12:33.629Z,99367.08
2018-07-19T08:15:02.381Z,99370.20
2018-07-19T08:17:31.301Z,99364.16
2018-07-19T08:20:00.075Z,99376.84
2018-07-19T08:22:28.934Z,99372.55
2018-07-19T08:24:57.529Z,99376.54
2018-07-19T08:27:26.341Z,99376.97
2018-07-19T08:29:55.041Z,99374.45
2018-07-19T08:32:23.685Z,99376.13
2018-07-19T08:34:52.286Z,99366.97
2018-07-19T08:37:20.978Z,99362.14
2018-07-19T08:39:49.685Z,99365.83
2018-07-19T08:42:18.319Z,99366.13
2018-07-19T08:44:46.938Z,99361.53
2018-07-19T08:47:16.300Z,99366.63
2018-07-19T08:49:46.621Z,99354.28
2018-07-19T08:52:15.471Z,99356.05
2018-07-19T08:54:44.202Z,99352.70
2018-07-19T08:57:12.930Z,99348.75
2018-07-19T08:59:41.641Z,99361.27
2018-07-19T09:02:10.295Z,99364.58
2018-07-19T09:04:39.087Z,99351.47
2018-07-19T09:07:07.762Z,99339.67
2018-07-19T09:09:36.435Z,99350.53
2018-07-19T09:12:05.171Z,99345.65
2018-07-19T09:14:33.881Z,99352.17
2018-07-19T09:17:02.566Z,99366.55
2018-07-19T09:19:31.263Z,99346.31
2018-07-19T09:21:59.882Z,99359.77
2018-07-19T09:24:28.575Z,99344.42
2018-07-19T09:26:57.277Z,99348.23
2018-07-19T09:29:25.960Z,99364.06
2018-07-19T09:31:55.035Z,99347.23
2018-07-19T09:34:23.715Z,99342.34
2018-07-19T09:36:52.514Z,99345.48
2018-07-19T09:39:21.420Z,99344.44
2018-07-19T09:41:50.116Z,99347.22
2018-07-19T09:44:19.190Z,99341.98
2018-07-19T09:46:48.334Z,99346.04
2018-07-19T09:49:17.019Z,99358.26
2018-07-19T09:51:45.635Z,99337.89
2018-07-19T09:54:25.344Z,99351.73
2018-07-19T09:56:53.981Z,99345.86
2018-07-19T09:59:22.707Z,99350.17
2018-07-19T10:01:51.326Z,99337.02
2018-07-19T10:04:20.486Z,99334.02
2018-07-19T10:06:49.089Z,99330.55
2018-07-19T10:09:17.758Z,99335.63
2018-07-19T10:11:46.406Z,99331.37
2018-07-19T10:14:15.091Z,99337.69
2018-07-19T10:16:43.712Z,99346.66
2018-07-19T10:19:12.310Z,99339.67
2018-07-19T10:21:41.146Z,99338.41
2018-07-19T10:24:09.944Z,99329.16
2018-07-19T10:26:38.656Z,99320.22
2018-07-19T10:29:07.329Z,99320.84
2018-07-19T10:31:36.002Z,99337.94
2018-07-19T10:34:04.747Z,99345.64
2018-07-19T10:36:33.437Z,99339.20
2018-07-19T10:39:02.150Z,99334.83
2018-07-19T10:41:31.125Z,99329.87
2018-07-19T10:43:59.880Z,99325.63
2018-07-19T10:46:28.555Z,99327.08
2018-07-19T10:48:57.826Z,99326.08
2018-07-19T10:51:26.610Z,99328.06
2018-07-19T10:53:55.706Z,99336.50
2018-07-19T10:56:24.375Z,99321.00
2018-07-19T10:58:53.076Z,99327.72
2018-07-19T11:01:21.792Z,99314.92
2018-07-19T11:03:51.537Z,99325.44
2018-07-19T11:06:20.323Z,99308.12
2018-07-19T11:08:49.059Z,99308.31
2018-07-19T11:11:18.009Z,99334.59
2018-07-19T11:13:46.602Z,99320.14
2018-07-19T11:16:15.277Z,99316.34
2018-07-19T11:18:44.564Z,99308.70
2018-07-19T11:21:13.345Z,99316.50
2018-07-19T11:23:42.071Z,99317.89
2018-07-19T11:26:10.809Z,99309.56
2018-07-19T11:28:39.467Z,99324.61
2018-07-19T11:31:08.157Z,99299.97
2018-07-19T11:33:36.811Z,99296.22
2018-07-19T11:36:05.586Z,99301.84
2018-07-19T11:38:34.355Z,99302.50
2018-07-19T11:41:03.055Z,99307.61
2018-07-19T11:43:31.752Z,99306.66
2018-07-19T11:46:00.402Z,99307.50
2018-07-19T11:48:29.060Z,99344.23
2018-07-19T11:50:57.760Z,99298.13
2018-07-19T11:53:26.444Z,99303.44
2018-07-19T11:55:55.057Z,99309.54
2018-07-19T11:58:23.675Z,99305.77
2018-07-19T12:00:52.323Z,99293.23
2018-07-19T12:03:21.133Z,99316.36
2018-07-19T12:05:49.788Z,99292.09
2018-07-19T12:08:18.467Z,99300.02
2018-07-19T12:10:47.079Z,99291.84
2018-07-19T12:13:15.654Z,99303.80
2018-07-19T12:15:44.300Z,99297.02
2018-07-19T12:18:12.960Z,99302.43
2018-07-19T12:20:41.984Z,99307.03
2018-07-19T12:23:11.348Z,99292.28
2018-07-19T12:25:40.182Z,99296.97
2018-07-19T12:28:08.781Z,99290.88
2018-07-19T12:30:37.502Z,99294.83
2018-07-19T12:33:06.170Z,99308.73
2018-07-19T12:35:34.809Z,99293.97
2018-07-19T12:38:03.571Z,99298.56
2018-07-19T12:40:32.441Z,99292.80
2018-07-19T12:43:01.603Z,99286.53
2018-07-19T12:45:30.406Z,99287.78
2018-07-19T12:47:59.025Z,99288.77
2018-07-19T12:50:28.202Z,99287.45
2018-07-19T12:52:56.996Z,99297.80
2018-07-19T12:55:25.606Z,99291.63
2018-07-19T12:57:56.305Z,99283.55
2018-07-19T13:00:24.950Z,99282.59
2018-07-19T13:02:53.770Z,99272.02
2018-07-19T13:05:23.019Z,99272.19
2018-07-19T13:07:51.804Z,99280.50
2018-07-19T13:10:20.526Z,99276.36
2018-07-19T13:12:49.550Z,99265.61
2018-07-19T13:15:18.329Z,99273.39
2018-07-19T13:17:47.034Z,99265.25
2018-07-19T13:20:15.982Z,99280.69
2018-07-19T13:22:46.041Z,99264.78
2018-07-19T13:25:14.959Z,99259.83
2018-07-19T13:27:43.775Z,99254.08
2018-07-19T13:30:14.078Z,99264.34
2018-07-19T13:32:42.638Z,99280.49
2018-07-19T13:35:12.303Z,99265.11
2018-07-19T13:37:40.956Z,99251.74
2018-07-19T13:40:09.623Z,99245.15
2018-07-19T13:42:38.459Z,99249.77
2018-07-19T13:45:07.305Z,99264.77
2018-07-19T13:47:35.915Z,99270.09
2018-07-19T13:50:05.085Z,99253.70
2018-07-19T13:52:44.850Z,99256.13
2018-07-19T13:55:13.510Z,99251.55
2018-07-19T13:57:42.377Z,99265.46
2018-07-19T14:00:11.091Z,99247.55
2018-07-19T14:02:39.713Z,99250.73
2018-07-19T14:05:08.642Z,99250.91
2018-07-19T14:07:37.253Z,99245.59
2018-07-19T14:10:05.851Z,99239.30
2018-07-19T14:12:34.451Z,99237.64
2018-07-19T14:15:03.045Z,99237.84
2018-07-19T14:17:31.653Z,99234.70
2018-07-19T14:20:00.244Z,99233.37
2018-07-19T14:22:28.837Z,99232.66
2018-07-19T14:24:58.522Z,99236.56
2018-07-19T14:27:27.408Z,99242.55
2018-07-19T14:29:56.076Z,99241.33
2018-07-19T14:32:31.071Z,99235.14
2018-07-19T14:35:00.303Z,99227.48
2018-07-19T14:37:28.994Z,99241.23
2018-07-19T14:39:57.645Z,99227.20
2018-07-19T14:42:26.288Z,99235.35
2018-07-19T14:44:54.914Z,99235.48
2018-07-19T14:47:23.571Z,99225.78
2018-07-19T14:49:52.199Z,99238.78
2018-07-19T14:52:20.889Z,99224.44
2018-07-19T14:54:49.494Z,99227.25
2018-07-19T14:57:18.298Z,99227.25
2018-07-19T14:59:46.963Z,99221.84
2018-07-19T15:02:15.563Z,99242.83
2018-07-19T15:04:44.260Z,99219.44
2018-07-19T15:07:12.923Z,99218.80
2018-07-19T15:09:43.854Z,99222.17
2018-07-19T15:12:12.595Z,99221.55
2018-07-19T15:14:41.459Z,99223.72
2018-07-19T15:17:10.085Z,99210.14
2018-07-19T15:19:39.591Z,99230.45
2018-07-19T15:22:08.253Z,99215.16
2018-07-19T15:24:37.006Z,99202.41
2018-07-19T15:27:05.604Z,99223.57
2018-07-19T15:29:34.351Z,99197.72
2018-07-19T15:32:03.067Z,99226.38
2018-07-19T15:34:31.829Z,99208.02
2018-07-19T15:37:00.688Z,99209.04
2018-07-19T15:39:29.524Z,99207.56
2018-07-19T15:41:58.307Z,99219.91
2018-07-19T15:44:28.090Z,99215.63
2018-07-19T15:46:56.871Z,99223.03
2018-07-19T15:49:25.608Z,99202.32
2018-07-19T15:51:54.902Z,99209.88
2018-07-19T15:54:23.654Z,99201.73
2018-07-19T15:56:52.511Z,99195.66
2018-07-19T15:59:21.185Z,99203.69
2018-07-19T16:01:49.928Z,99205.27
2018-07-19T16:04:18.590Z,99218.39
2018-07-19T16:06:47.287Z,99220.20
2018-07-19T16:09:15.935Z,99204.17
2018-07-19T16:11:44.714Z,99200.25
2018-07-19T16:14:13.770Z,99200.70
2018-07-19T16:16:42.502Z,99206.08
2018-07-19T16:19:11.112Z,99197.44
2018-07-19T16:21:39.733Z,99196.41
2018-07-19T16:24:08.759Z,99193.47
2018-07-19T16:26:37.487Z,99190.14
2018-07-19T16:29:06.306Z,99188.34
2018-07-19T16:31:35.092Z,99193.34
2018-07-19T16:34:04.148Z,99185.66
2018-07-19T16:36:33.146Z,99187.56
2018-07-19T16:39:02.105Z,99183.33
2018-07-19T16:41:30.814Z,99188.89
2018-07-19T16:44:00.315Z,99182.31
2018-07-19T16:46:29.432Z,99186.41
2018-07-19T16:48:58.155Z,99188.06
2018-07-19T16:51:26.894Z,99175.95
2018-07-19T16:53:55.658Z,99179.98
2018-07-19T16:56:24.362Z,99171.50
2018-07-19T16:58:53.123Z,99170.48
2018-07-19T17:01:21.858Z,99176.39
2018-07-19T17:03:50.642Z,99167.03
2018-07-19T17:06:19.366Z,99169.45
2018-07-19T17:08:48.928Z,99171.64
2018-07-19T17:11:17.731Z,99174.00
2018-07-19T17:13:46.418Z,99174.39
2018-07-19T17:16:15.337Z,99175.59
2018-07-19T17:18:44.402Z,99169.48
2018-07-19T17:21:13.318Z,99166.38
2018-07-19T17:23:42.079Z,99161.70
2018-07-19T17:26:10.849Z,99169.58
2018-07-19T17:28:39.536Z,99166.88
2018-07-19T17:31:10.004Z,99178.51
2018-07-19T17:33:38.846Z,99176.14
2018-07-19T17:36:07.913Z,99176.80
2018-07-19T17:38:36.818Z,99175.94
2018-07-19T17:41:05.516Z,99178.44
2018-07-19T17:43:34.250Z,99178.09
2018-07-19T17:46:02.920Z,99184.48
2018-07-19T17:48:31.602Z,99189.34
2018-07-19T17:51:00.367Z,99182.73
2018-07-19T17:53:29.916Z,99186.42
2018-07-19T17:55:58.790Z,99181.83
2018-07-19T17:58:28.120Z,99182.37
2018-07-19T18:00:56.989Z,99187.36
2018-07-19T18:03:25.634Z,99188.69
2018-07-19T18:05:54.297Z,99186.29
2018-07-19T18:08:23.121Z,99187.72
2018-07-19T18:10:52.070Z,99187.66
2018-07-19T18:13:20.710Z,99195.28
2018-07-19T18:15:50.713Z,99199.16
2018-07-19T18:18:19.767Z,99197.79
2018-07-19T18:20:50.083Z,99196.77
2018-07-19T18:23:18.832Z,99194.63
2018-07-19T18:25:47.627Z,99198.36
2018-07-19T18:28:16.831Z,99200.05
2018-07-19T18:30:46.626Z,99206.31
2018-07-19T18:33:20.969Z,99202.58
2018-07-19T18:35:50.533Z,99205.64
2018-07-19T18:38:19.513Z,99206.84
2018-07-19T18:40:48.248Z,99207.23
2018-07-19T18:43:17.517Z,99208.20
2018-07-19T18:45:46.323Z,99211.49
2018-07-19T18:48:15.016Z,99207.75
2018-07-19T18:50:50.133Z,99213.27
2018-07-19T18:53:18.894Z,99216.44
2018-07-19T18:55:47.554Z,99225.66
2018-07-19T18:58:16.384Z,99224.25
2018-07-19T19:00:45.138Z,99238.58
2018-07-19T19:03:13.873Z,99237.58
2018-07-19T19:05:42.770Z,99239.55
2018-07-19T19:08:11.608Z,99239.23
2018-07-19T19:10:40.297Z,99239.46
2018-07-19T19:13:09.120Z,99246.06
2018-07-19T19:15:37.766Z,99239.28
2018-07-19T19:18:06.540Z,99246.53
2018-07-19T19:20:35.285Z,99247.16
2018-07-19T19:23:03.954Z,99253.20
2018-07-19T19:25:32.609Z,99247.74
2018-07-19T19:28:01.277Z,99254.58
2018-07-19T19:30:29.940Z,99249.70
2018-07-19T19:32:58.906Z,99250.12
2018-07-19T19:35:27.680Z,99254.79
2018-07-19T19:37:56.317Z,99255.34
2018-07-19T19:40:25.054Z,99258.11
2018-07-19T19:42:53.825Z,99267.09
2018-07-19T19:45:22.562Z,99258.98
2018-07-19T19:47:51.620Z,99268.54
2018-07-19T19:50:20.531Z,99271.41
2018-07-19T19:52:49.823Z,99269.48
2018-07-19T19:55:18.511Z,99270.34
2018-07-19T19:57:48.127Z,99268.89
2018-07-19T20:00:16.796Z,99271.06
2018-07-19T20:02:45.509Z,99270.45
2018-07-19T20:05:14.168Z,99280.59
2018-07-19T20:07:43.104Z,99284.52
2018-07-19T20:10:11.852Z,99282.95
2018-07-19T20:12:40.550Z,99286.06
2018-07-19T20:15:09.253Z,99291.16
2018-07-19T20:17:37.919Z,99298.06
2018-07-19T20:20:11.404Z,99291.02
2018-07-19T20:22:40.262Z,99294.94
2018-07-19T20:25:09.282Z,99293.77
2018-07-19T20:27:38.029Z,99302.67
2018-07-19T20:30:06.723Z,99299.77
2018-07-19T20:32:36.033Z,99301.78
2018-07-19T20:35:04.835Z,99298.17
2018-07-19T20:37:33.624Z,99306.47
2018-07-19T20:40:02.874Z,99300.05
2018-07-19T20:42:31.557Z,99302.73
2018-07-19T20:45:00.223Z,99304.64
2018-07-19T20:47:30.036Z,99309.38
2018-07-19T20:49:58.877Z,99306.34
2018-07-19T20:52:27.700Z,99309.02
2018-07-19T20:54:56.453Z,99306.72
2018-07-19T20:57:25.115Z,99312.50
2018-07-19T20:59:53.774Z,99314.63
2018-07-19T21:02:22.491Z,99316.56
2018-07-19T21:04:51.274Z,99315.75
2018-07-19T21:07:20.066Z,99323.66
2018-07-19T21:09:48.716Z,99318.55
2018-07-19T21:12:17.462Z,99322.53
2018-07-19T21:14:46.149Z,99325.30
2018-07-19T21:17:14.888Z,99324.70
2018-07-19T21:19:43.597Z,99326.63
2018-07-19T21:22:12.396Z,99329.17
2018-07-19T21:24:41.153Z,99326.98
2018-07-19T21:27:11.779Z,99326.36
2018-07-19T21:29:40.599Z,99336.97
2018-07-19T21:32:09.336Z,99336.59
2018-07-19T21:34:37.987Z,99334.91
2018-07-19T21:37:06.833Z,99333.14
2018-07-19T21:39:35.524Z,99337.94
2018-07-19T21:42:06.149Z,99336.67
2018-07-19T21:44:38.633Z,99342.86
2018-07-19T22:00:02.620Z,99349.86
2018-07-19T22:02:31.425Z,99357.03
2018-07-19T22:05:00.659Z,99348.99
2018-07-19T22:07:30.006Z,99352.47
2018-07-19T22:09:58.888Z,99355.08
2018-07-19T22:12:27.601Z,99352.45
2018-07-19T22:14:56.250Z,99346.52
2018-07-19T22:17:24.952Z,99352.94
2018-07-19T22:19:53.651Z,99351.23
2018-07-19T22:22:22.400Z,99351.38
2018-07-19T22:24:51.063Z,99357.38
2018-07-19T22:27:19.678Z,99360.09
2018-07-19T22:29:48.373Z,99361.92
2018-07-19T22:32:17.044Z,99358.30
2018-07-19T22:34:45.643Z,99368.61
2018-07-19T22:37:14.281Z,99366.41
2018-07-19T22:39:43.015Z,99367.24
2018-07-19T22:42:11.656Z,99366.14
2018-07-19T22:44:40.414Z,99366.85
2018-07-19T22:47:09.130Z,99366.56
2018-07-19T22:49:37.762Z,99370.17
2018-07-19T22:52:06.422Z,99370.27
2018-07-19T22:54:35.040Z,99366.61
2018-07-19T22:57:03.714Z,99364.72
2018-07-19T22:59:33.162Z,99367.97
2018-07-19T23:02:01.817Z,99363.50
2018-07-19T23:04:30.518Z,99363.73
2018-07-19T23:06:59.265Z,99367.19
2018-07-19T23:09:28.023Z,99374.03
2018-07-19T23:11:56.701Z,99376.59
2018-07-19T23:14:25.376Z,99375.59
2018-07-19T23:16:54.101Z,99379.39
2018-07-19T23:19:22.768Z,99377.31
2018-07-19T23:21:51.536Z,99374.80
2018-07-19T23:24:20.387Z,99376.45
2018-07-19T23:26:49.216Z,99380.03
2018-07-19T23:29:18.021Z,99378.38
2018-07-19T23:31:46.734Z,99379.80
2018-07-19T23:34:16.113Z,99379.12
2018-07-19T23:36:48.393Z,99384.44
2018-07-19T23:39:51.130Z,99383.59
2018-07-19T23:42:28.614Z,99388.92
2018-07-19T23:45:08.218Z,99393.48
2018-07-19T23:47:39.021Z,99387.55
2018-07-19T23:50:07.728Z,99390.18
2018-07-19T23:52:36.371Z,99394.30
2018-07-19T23:55:05.201Z,99393.95
2018-07-19T23:57:33.876Z,99391.73
